createdAt,value
2017-04-18T00:00:44.548Z,970.66
2017-04-18T00:01:53.641Z,970.65
2017-04-18T00:03:02.717Z,970.61
2017-04-18T00:04:11.453Z,970.64
2017-04-18T00:05:20.774Z,970.66
2017-04-18T00:06:30.123Z,970.61
2017-04-18T00:07:39.279Z,970.63
2017-04-18T00:08:48.875Z,970.63
2017-04-18T00:09:58.845Z,970.59
2017-04-18T00:11:08.232Z,970.66
2017-04-18T00:12:17.014Z,970.67
2017-04-18T00:13:26.103Z,970.65
2017-04-18T00:14:35.498Z,970.67
2017-04-18T00:15:44.569Z,970.68
2017-04-18T00:16:53.656Z,970.66
2017-04-18T00:18:02.413Z,970.72
2017-04-18T00:19:11.816Z,970.64
2017-04-18T00:20:21.406Z,970.66
2017-04-18T00:21:30.446Z,970.68
2017-04-18T00:22:39.688Z,970.66
2017-04-18T00:23:48.769Z,970.61
2017-04-18T00:24:57.838Z,970.68
2017-04-18T00:26:06.873Z,970.69
2017-04-18T00:27:15.965Z,970.67
2017-04-18T00:28:25.054Z,970.71
2017-04-18T00:29:33.845Z,970.68
2017-04-18T00:30:43.151Z,970.69
2017-04-18T00:31:51.939Z,970.69
2017-04-18T00:33:01.040Z,970.67
2017-04-18T00:34:10.952Z,970.65
2017-04-18T00:35:19.977Z,970.68
2017-04-18T00:36:29.017Z,970.7
2017-04-18T00:37:38.403Z,970.71
2017-04-18T00:38:47.491Z,970.68
2017-04-18T00:39:56.843Z,970.7
2017-04-18T00:41:05.956Z,970.66
2017-04-18T00:42:14.745Z,970.65
2017-04-18T00:43:24.146Z,970.7
2017-04-18T00:44:33.240Z,970.65
2017-04-18T00:45:42.530Z,970.67
2017-04-18T00:46:51.319Z,970.67
2017-04-18T00:48:00.108Z,970.68
2017-04-18T00:49:09.198Z,970.68
2017-04-18T00:50:18.600Z,970.65
2017-04-18T00:51:27.995Z,970.68
2017-04-18T00:52:37.094Z,970.63
2017-04-18T00:53:46.494Z,970.62
2017-04-18T00:54:55.585Z,970.69
2017-04-18T00:56:04.979Z,970.67
2017-04-18T00:57:13.783Z,970.72
2017-04-18T00:58:22.577Z,970.72
2017-04-18T00:59:31.671Z,970.65
2017-04-18T01:00:41.370Z,970.69
2017-04-18T01:01:50.468Z,970.69
2017-04-18T01:02:59.240Z,970.68
2017-04-18T01:04:08.594Z,970.69
2017-04-18T01:05:18.305Z,970.69
2017-04-18T01:06:27.394Z,970.7
2017-04-18T01:07:36.186Z,970.67
2017-04-18T01:08:45.594Z,970.72
2017-04-18T01:09:54.700Z,970.67
2017-04-18T01:11:03.824Z,970.66
2017-04-18T01:12:13.208Z,970.65
2017-04-18T01:13:22.253Z,970.68
2017-04-18T01:14:31.658Z,970.69
2017-04-18T01:15:40.747Z,970.69
2017-04-18T01:16:49.845Z,970.65
2017-04-18T01:17:58.633Z,970.68
2017-04-18T01:19:07.725Z,970.68
2017-04-18T01:20:16.803Z,970.74
2017-04-18T01:21:25.524Z,970.72
2017-04-18T01:22:34.253Z,970.75
2017-04-18T01:23:43.014Z,970.72
2017-04-18T01:24:52.355Z,970.77
2017-04-18T01:26:01.434Z,970.78
2017-04-18T01:27:10.521Z,970.77
2017-04-18T01:28:19.306Z,970.76
2017-04-18T01:29:28.405Z,970.76
2017-04-18T01:30:37.494Z,970.75
2017-04-18T01:31:46.594Z,970.78
2017-04-18T01:32:55.334Z,970.81
2017-04-18T01:34:04.376Z,970.81
2017-04-18T01:35:13.368Z,970.82
2017-04-18T01:36:22.412Z,970.78
2017-04-18T01:37:31.203Z,970.81
2017-04-18T01:38:40.645Z,970.81
2017-04-18T01:39:50.074Z,970.81
2017-04-18T01:40:59.603Z,970.8
2017-04-18T01:42:09.000Z,970.81
2017-04-18T01:43:18.105Z,970.83
2017-04-18T01:44:27.148Z,970.86
2017-04-18T01:45:36.593Z,970.84
2017-04-18T01:46:45.406Z,970.82
2017-04-18T01:47:54.170Z,970.8
2017-04-18T01:49:03.287Z,970.78
2017-04-18T01:50:12.911Z,970.8
2017-04-18T01:51:21.614Z,970.82
2017-04-18T01:52:30.851Z,970.8
2017-04-18T01:53:40.727Z,970.79
2017-04-18T01:54:49.804Z,970.74
2017-04-18T01:55:58.865Z,970.83
2017-04-18T01:57:08.241Z,970.84
2017-04-18T01:58:17.319Z,970.84
2017-04-18T01:59:26.673Z,970.82
2017-04-18T02:00:35.968Z,970.83
2017-04-18T02:01:44.668Z,970.78
2017-04-18T02:02:53.426Z,970.87
2017-04-18T02:04:02.482Z,970.85
2017-04-18T02:05:11.246Z,970.76
2017-04-18T02:06:20.001Z,970.82
2017-04-18T02:07:29.066Z,970.83
2017-04-18T02:08:38.079Z,970.8
2017-04-18T02:09:47.142Z,970.82
2017-04-18T02:10:56.454Z,970.86
2017-04-18T02:12:05.148Z,970.78
2017-04-18T02:13:13.842Z,970.81
2017-04-18T02:14:23.207Z,970.86
2017-04-18T02:15:32.827Z,970.84
2017-04-18T02:16:41.884Z,970.87
2017-04-18T02:17:50.655Z,970.79
2017-04-18T02:18:59.715Z,970.88
2017-04-18T02:20:09.078Z,970.81
2017-04-18T02:21:17.834Z,970.82
2017-04-18T02:22:27.516Z,970.8
2017-04-18T02:23:36.869Z,970.79
2017-04-18T02:24:45.977Z,970.87
2017-04-18T02:25:54.752Z,970.81
2017-04-18T02:27:04.120Z,970.81
2017-04-18T02:28:13.190Z,970.83
2017-04-18T02:29:22.258Z,970.89
2017-04-18T02:30:31.304Z,970.86
2017-04-18T02:31:40.016Z,970.91
2017-04-18T02:32:49.071Z,970.92
2017-04-18T02:33:58.669Z,970.92
2017-04-18T02:35:07.971Z,970.93
2017-04-18T02:36:16.726Z,970.99
2017-04-18T02:37:25.783Z,970.99
2017-04-18T02:38:35.153Z,971
2017-04-18T02:39:44.519Z,970.95
2017-04-18T02:40:53.577Z,970.93
2017-04-18T02:42:02.640Z,970.94
2017-04-18T02:43:11.399Z,970.99
2017-04-18T02:44:20.461Z,970.95
2017-04-18T02:45:29.219Z,970.96
2017-04-18T02:46:38.590Z,970.99
2017-04-18T02:47:47.643Z,970.98
2017-04-18T02:48:56.947Z,971.01
2017-04-18T02:50:06.010Z,971.02
2017-04-18T02:51:15.068Z,971.02
2017-04-18T02:52:24.116Z,971.01
2017-04-18T02:53:32.832Z,971.03
2017-04-18T02:54:42.211Z,971.04
2017-04-18T02:55:51.894Z,970.99
2017-04-18T02:57:01.211Z,971
2017-04-18T02:58:09.975Z,971.03
2017-04-18T02:59:19.050Z,971.05
2017-04-18T03:00:27.806Z,971.05
2017-04-18T03:01:36.869Z,971.07
2017-04-18T03:02:45.630Z,970.99
2017-04-18T03:03:54.405Z,971.06
2017-04-18T03:05:03.372Z,971.07
2017-04-18T03:06:12.441Z,971.07
2017-04-18T03:07:21.504Z,971
2017-04-18T03:08:30.872Z,971.04
2017-04-18T03:09:40.905Z,971.09
2017-04-18T03:10:50.042Z,971.15
2017-04-18T03:11:59.115Z,971.07
2017-04-18T03:13:08.181Z,971.09
2017-04-18T03:14:16.933Z,971.1
2017-04-18T03:15:26.404Z,971.11
2017-04-18T03:16:35.508Z,971.11
2017-04-18T03:17:44.333Z,971.11
2017-04-18T03:18:53.368Z,971.14
2017-04-18T03:20:02.357Z,971.14
2017-04-18T03:21:11.111Z,971.16
2017-04-18T03:22:19.877Z,971.18
2017-04-18T03:23:29.721Z,971.21
2017-04-18T03:24:39.316Z,971.18
2017-04-18T03:25:48.091Z,971.17
2017-04-18T03:26:57.170Z,971.18
2017-04-18T03:28:05.878Z,971.18
2017-04-18T03:29:15.451Z,971.18
2017-04-18T03:30:24.203Z,971.23
2017-04-18T03:31:33.217Z,971.17
2017-04-18T03:32:41.982Z,971.19
2017-04-18T03:33:51.355Z,971.25
2017-04-18T03:35:00.727Z,971.24
2017-04-18T03:36:09.792Z,971.35
2017-04-18T03:37:19.100Z,971.33
2017-04-18T03:38:28.419Z,971.33
2017-04-18T03:39:37.479Z,971.35
2017-04-18T03:40:46.553Z,971.36
2017-04-18T03:41:55.297Z,971.37
2017-04-18T03:43:04.312Z,971.34
2017-04-18T03:44:13.370Z,971.35
2017-04-18T03:45:22.443Z,971.52
2017-04-18T03:46:31.194Z,971.39
2017-04-18T03:47:39.983Z,971.4
2017-04-18T03:48:49.346Z,971.46
2017-04-18T03:49:58.446Z,971.48
2017-04-18T03:51:07.810Z,971.43
2017-04-18T03:52:16.828Z,971.45
2017-04-18T03:53:25.896Z,971.44
2017-04-18T03:54:35.446Z,971.46
2017-04-18T03:55:44.764Z,971.48
2017-04-18T03:56:53.815Z,971.54
2017-04-18T03:58:02.565Z,971.56
2017-04-18T03:59:12.247Z,971.51
2017-04-18T04:00:21.628Z,971.56
2017-04-18T04:01:30.996Z,971.53
2017-04-18T04:02:40.351Z,971.57
2017-04-18T04:03:49.409Z,971.53
2017-04-18T04:04:58.356Z,971.59
2017-04-18T04:06:07.410Z,971.57
2017-04-18T04:07:16.416Z,971.54
2017-04-18T04:08:25.770Z,971.57
2017-04-18T04:09:34.785Z,971.54
2017-04-18T04:10:44.411Z,971.56
2017-04-18T04:11:53.774Z,971.56
2017-04-18T04:13:02.542Z,971.57
2017-04-18T04:14:11.605Z,971.56
2017-04-18T04:15:20.515Z,971.57
2017-04-18T04:16:29.280Z,971.65
2017-04-18T04:17:38.636Z,971.62
2017-04-18T04:18:47.656Z,971.61
2017-04-18T04:19:56.417Z,971.61
2017-04-18T04:21:05.800Z,971.66
2017-04-18T04:22:14.857Z,971.6
2017-04-18T04:23:23.620Z,971.63
2017-04-18T04:24:32.669Z,971.65
2017-04-18T04:25:41.975Z,971.65
2017-04-18T04:26:50.684Z,971.68
2017-04-18T04:27:59.742Z,971.67
2017-04-18T04:29:08.473Z,971.7
2017-04-18T04:30:17.541Z,971.65
2017-04-18T04:31:26.894Z,971.71
2017-04-18T04:32:35.920Z,971.67
2017-04-18T04:33:44.996Z,971.71
2017-04-18T04:34:54.480Z,971.77
2017-04-18T04:36:03.285Z,971.72
2017-04-18T04:37:12.191Z,971.73
2017-04-18T04:38:20.948Z,971.74
2017-04-18T04:39:29.954Z,971.79
2017-04-18T04:40:38.981Z,971.76
2017-04-18T04:41:47.702Z,971.77
2017-04-18T04:42:56.773Z,971.77
2017-04-18T04:44:05.850Z,971.72
2017-04-18T04:45:14.943Z,971.82
2017-04-18T04:46:24.259Z,971.81
2017-04-18T04:47:33.326Z,971.81
2017-04-18T04:48:42.858Z,971.82
2017-04-18T04:49:52.252Z,971.8
2017-04-18T04:51:01.687Z,971.82
2017-04-18T04:52:10.974Z,971.88
2017-04-18T04:53:19.989Z,971.88
2017-04-18T04:54:28.762Z,971.85
2017-04-18T04:55:37.829Z,971.85
2017-04-18T04:56:47.167Z,971.86
2017-04-18T04:57:56.437Z,971.89
2017-04-18T04:59:05.506Z,971.89
2017-04-18T05:00:14.568Z,971.98
2017-04-18T05:01:24.077Z,971.97
2017-04-18T05:02:32.899Z,971.98
2017-04-18T05:03:41.968Z,972
2017-04-18T05:04:51.646Z,972.01
2017-04-18T05:06:01.016Z,972.07
2017-04-18T05:07:10.101Z,972.04
2017-04-18T05:08:19.165Z,972.07
2017-04-18T05:09:28.237Z,972.08
2017-04-18T05:10:36.946Z,972.07
2017-04-18T05:11:45.701Z,972.11
2017-04-18T05:12:54.467Z,972.15
2017-04-18T05:14:04.157Z,972.13
2017-04-18T05:15:13.215Z,972.2
2017-04-18T05:16:21.919Z,972.18
2017-04-18T05:17:30.688Z,972.19
2017-04-18T05:18:39.765Z,972.23
2017-04-18T05:19:49.751Z,972.24
2017-04-18T05:20:58.832Z,972.28
2017-04-18T05:22:07.604Z,972.3
2017-04-18T05:23:16.663Z,972.31
2017-04-18T05:24:25.740Z,972.33
2017-04-18T05:25:35.005Z,972.36
2017-04-18T05:26:43.762Z,972.39
2017-04-18T05:27:52.823Z,972.34
2017-04-18T05:29:02.207Z,972.36
2017-04-18T05:30:11.575Z,972.41
2017-04-18T05:31:20.341Z,972.43
2017-04-18T05:32:29.405Z,972.42
2017-04-18T05:33:38.471Z,972.45
2017-04-18T05:34:48.110Z,972.46
2017-04-18T05:35:57.067Z,972.42
2017-04-18T05:37:05.837Z,972.49
2017-04-18T05:38:14.602Z,972.47
2017-04-18T05:39:23.675Z,972.45
2017-04-18T05:40:32.722Z,972.46
2017-04-18T05:41:41.767Z,972.48
2017-04-18T05:42:50.831Z,972.47
2017-04-18T05:43:59.908Z,972.47
2017-04-18T05:45:08.977Z,972.48
2017-04-18T05:46:18.056Z,972.46
2017-04-18T05:47:27.015Z,972.47
2017-04-18T05:48:35.779Z,972.48
2017-04-18T05:49:45.772Z,972.5
2017-04-18T05:50:55.746Z,972.52
2017-04-18T05:52:04.805Z,972.47
2017-04-18T05:53:13.573Z,972.5
2017-04-18T05:54:23.257Z,972.55
2017-04-18T05:55:32.325Z,972.55
2017-04-18T05:56:41.085Z,972.5
2017-04-18T05:57:49.840Z,972.6
2017-04-18T05:58:58.901Z,972.6
2017-04-18T06:00:07.911Z,972.61
2017-04-18T06:01:17.291Z,972.62
2017-04-18T06:02:26.052Z,972.64
2017-04-18T06:03:35.137Z,972.65
2017-04-18T06:04:44.504Z,972.66
2017-04-18T06:05:53.821Z,972.64
2017-04-18T06:07:03.507Z,972.68
2017-04-18T06:08:12.460Z,972.71
2017-04-18T06:09:21.518Z,972.74
2017-04-18T06:10:30.581Z,972.77
2017-04-18T06:11:39.330Z,972.73
2017-04-18T06:12:48.645Z,972.76
2017-04-18T06:13:58.629Z,972.74
2017-04-18T06:15:08.329Z,972.78
2017-04-18T06:16:17.710Z,972.77
2017-04-18T06:17:26.781Z,972.76
2017-04-18T06:18:36.062Z,972.79
2017-04-18T06:19:45.320Z,972.78
2017-04-18T06:20:54.336Z,972.8
2017-04-18T06:22:03.412Z,972.84
2017-04-18T06:23:12.171Z,972.84
2017-04-18T06:24:20.972Z,972.9
2017-04-18T06:25:30.028Z,972.89
2017-04-18T06:26:39.095Z,972.88
2017-04-18T06:27:47.815Z,972.88
2017-04-18T06:28:56.521Z,972.94
2017-04-18T06:30:05.904Z,972.89
2017-04-18T06:31:14.658Z,972.94
2017-04-18T06:32:23.679Z,972.94
2017-04-18T06:33:32.447Z,972.95
2017-04-18T06:34:41.728Z,972.95
2017-04-18T06:35:50.485Z,972.96
2017-04-18T06:36:59.857Z,972.96
2017-04-18T06:38:08.923Z,972.94
2017-04-18T06:39:18.314Z,972.94
2017-04-18T06:40:27.082Z,972.97
2017-04-18T06:41:35.842Z,972.94
2017-04-18T06:42:44.592Z,973
2017-04-18T06:43:53.334Z,973.04
2017-04-18T06:45:02.034Z,973.03
2017-04-18T06:46:11.655Z,973.04
2017-04-18T06:47:20.424Z,973.1
2017-04-18T06:48:29.494Z,973.07
2017-04-18T06:49:38.872Z,973.1
2017-04-18T06:50:47.923Z,973.12
2017-04-18T06:51:56.631Z,973.14
2017-04-18T06:53:05.379Z,973.14
2017-04-18T06:54:14.701Z,973.13
2017-04-18T06:55:24.385Z,973.16
2017-04-18T06:56:33.445Z,973.14
2017-04-18T06:57:42.215Z,973.16
2017-04-18T06:58:51.290Z,973.19
2017-04-18T07:00:00.303Z,973.22
2017-04-18T07:01:09.361Z,973.26
2017-04-18T07:02:18.441Z,973.2
2017-04-18T07:03:27.225Z,973.21
2017-04-18T07:04:36.904Z,973.21
2017-04-18T07:05:45.968Z,973.22
2017-04-18T07:06:54.693Z,973.29
2017-04-18T07:08:04.076Z,973.3
2017-04-18T07:09:13.132Z,973.26
2017-04-18T07:10:22.162Z,973.3
2017-04-18T07:11:31.235Z,973.27
2017-04-18T07:12:40.289Z,973.3
2017-04-18T07:13:49.086Z,973.28
2017-04-18T07:14:58.157Z,973.3
2017-04-18T07:16:07.546Z,973.33
2017-04-18T07:17:16.303Z,973.33
2017-04-18T07:18:25.062Z,973.31
2017-04-18T07:19:34.132Z,973.31
2017-04-18T07:20:43.500Z,973.36
2017-04-18T07:21:52.565Z,973.39
2017-04-18T07:23:01.315Z,973.39
2017-04-18T07:24:10.113Z,973.38
2017-04-18T07:25:19.495Z,973.38
2017-04-18T07:26:28.267Z,973.37
2017-04-18T07:27:37.044Z,973.4
2017-04-18T07:28:46.070Z,973.39
2017-04-18T07:29:55.438Z,973.42
2017-04-18T07:31:04.523Z,973.44
2017-04-18T07:32:13.598Z,973.46
2017-04-18T07:33:22.353Z,973.53
2017-04-18T07:34:31.100Z,973.51
2017-04-18T07:35:39.815Z,973.49
2017-04-18T07:36:48.582Z,973.54
2017-04-18T07:37:57.656Z,973.52
2017-04-18T07:39:06.722Z,973.56
2017-04-18T07:40:15.800Z,973.55
2017-04-18T07:41:24.865Z,973.59
2017-04-18T07:42:33.644Z,973.6
2017-04-18T07:43:42.453Z,973.57
2017-04-18T07:44:51.185Z,973.58
2017-04-18T07:46:00.154Z,973.58
2017-04-18T07:47:08.920Z,973.64
2017-04-18T07:48:17.915Z,973.64
2017-04-18T07:49:26.690Z,973.63
2017-04-18T07:50:35.801Z,973.63
2017-04-18T07:51:44.870Z,973.64
2017-04-18T07:52:53.788Z,973.65
2017-04-18T07:54:02.514Z,973.67
2017-04-18T07:55:11.286Z,973.66
2017-04-18T07:56:20.406Z,973.74
2017-04-18T07:57:29.191Z,973.71
2017-04-18T07:58:38.304Z,973.75
2017-04-18T07:59:47.686Z,973.72
2017-04-18T08:00:56.753Z,973.76
2017-04-18T08:02:05.828Z,973.78
2017-04-18T08:03:14.580Z,973.79
2017-04-18T08:04:23.348Z,973.79
2017-04-18T08:05:32.410Z,973.78
2017-04-18T08:06:41.128Z,973.83
2017-04-18T08:07:49.901Z,973.86
2017-04-18T08:08:58.984Z,973.86
2017-04-18T08:10:07.748Z,973.92
2017-04-18T08:11:16.517Z,973.87
2017-04-18T08:12:25.578Z,973.9
2017-04-18T08:13:34.293Z,973.95
2017-04-18T08:14:43.712Z,973.96
2017-04-18T08:15:52.781Z,973.98
2017-04-18T08:17:01.543Z,973.97
2017-04-18T08:18:10.311Z,973.99
2017-04-18T08:19:19.401Z,973.99
2017-04-18T08:20:28.167Z,973.98
2017-04-18T08:21:37.832Z,973.97
2017-04-18T08:22:46.900Z,974.01
2017-04-18T08:23:55.976Z,974
2017-04-18T08:25:05.054Z,973.98
2017-04-18T08:26:14.122Z,974.04
2017-04-18T08:27:23.188Z,974.05
2017-04-18T08:28:32.266Z,974.05
2017-04-18T08:29:41.032Z,974.04
2017-04-18T08:30:49.784Z,974.05
2017-04-18T08:31:58.859Z,974.03
2017-04-18T08:33:07.922Z,974.07
2017-04-18T08:34:16.989Z,974.08
2017-04-18T08:35:26.373Z,974.12
2017-04-18T08:36:35.160Z,974.05
2017-04-18T08:37:44.236Z,974.05
2017-04-18T08:38:52.994Z,974.07
2017-04-18T08:40:02.371Z,974.09
2017-04-18T08:41:11.142Z,974.12
2017-04-18T08:42:19.907Z,974.08
2017-04-18T08:43:28.671Z,974.13
2017-04-18T08:44:37.422Z,974.18
2017-04-18T08:45:46.432Z,974.16
2017-04-18T08:46:55.375Z,974.17
2017-04-18T08:48:04.141Z,974.19
2017-04-18T08:49:13.212Z,974.24
2017-04-18T08:50:22.268Z,974.18
2017-04-18T08:51:31.008Z,974.15
2017-04-18T08:52:39.766Z,974.21
2017-04-18T08:53:48.866Z,974.14
2017-04-18T08:54:57.575Z,974.15
2017-04-18T08:56:06.335Z,974.19
2017-04-18T08:57:15.098Z,974.15
2017-04-18T08:58:23.873Z,974.18
2017-04-18T08:59:32.638Z,974.23
2017-04-18T09:00:41.404Z,974.22
2017-04-18T09:01:50.142Z,974.22
2017-04-18T09:02:59.144Z,974.24
2017-04-18T09:04:08.467Z,974.2
2017-04-18T09:05:17.522Z,974.28
2017-04-18T09:06:26.280Z,974.33
2017-04-18T09:07:35.032Z,974.29
2017-04-18T09:08:44.048Z,974.33
2017-04-18T09:09:52.807Z,974.37
2017-04-18T09:11:01.578Z,974.37
2017-04-18T09:12:11.253Z,974.39
2017-04-18T09:13:20.261Z,974.42
2017-04-18T09:14:29.573Z,974.43
2017-04-18T09:15:38.626Z,974.45
2017-04-18T09:16:47.476Z,974.45
2017-04-18T09:17:56.844Z,974.48
2017-04-18T09:19:05.906Z,974.47
2017-04-18T09:20:15.231Z,974.46
2017-04-18T09:21:24.298Z,974.45
2017-04-18T09:22:33.379Z,974.46
2017-04-18T09:23:42.136Z,974.49
2017-04-18T09:24:51.511Z,974.47
2017-04-18T09:26:00.581Z,974.53
2017-04-18T09:27:09.960Z,974.52
2017-04-18T09:28:18.727Z,974.48
2017-04-18T09:29:27.803Z,974.55
2017-04-18T09:30:36.572Z,974.55
2017-04-18T09:31:45.636Z,974.59
2017-04-18T09:32:54.698Z,974.54
2017-04-18T09:34:04.367Z,974.56
2017-04-18T09:35:14.275Z,974.6
2017-04-18T09:36:23.073Z,974.55
2017-04-18T09:37:31.836Z,974.61
2017-04-18T09:38:40.888Z,974.64
2017-04-18T09:39:50.036Z,974.59
2017-04-18T09:40:59.029Z,974.67
2017-04-18T09:42:07.851Z,974.62
2017-04-18T09:43:17.218Z,974.62
2017-04-18T09:44:26.292Z,974.63
2017-04-18T09:45:35.670Z,974.65
2017-04-18T09:46:44.736Z,974.7
2017-04-18T09:47:53.492Z,974.7
2017-04-18T09:49:02.559Z,974.69
2017-04-18T09:50:11.930Z,974.72
2017-04-18T09:51:20.696Z,974.76
2017-04-18T09:52:29.770Z,974.72
2017-04-18T09:53:38.522Z,974.72
2017-04-18T09:54:47.557Z,974.75
2017-04-18T09:55:56.602Z,974.74
2017-04-18T09:57:05.366Z,974.78
2017-04-18T09:58:14.418Z,974.77
2017-04-18T09:59:23.749Z,974.78
2017-04-18T10:00:32.831Z,974.81
2017-04-18T10:01:41.594Z,974.77
2017-04-18T10:02:50.410Z,974.83
2017-04-18T10:03:59.788Z,974.87
2017-04-18T10:05:08.844Z,974.78
2017-04-18T10:06:17.852Z,974.85
2017-04-18T10:07:26.920Z,974.86
2017-04-18T10:08:35.695Z,974.83
2017-04-18T10:09:44.771Z,974.84
2017-04-18T10:10:53.841Z,974.85
2017-04-18T10:12:03.221Z,974.85
2017-04-18T10:13:11.979Z,974.85
2017-04-18T10:14:20.712Z,974.9
2017-04-18T10:15:29.784Z,974.93
2017-04-18T10:16:38.551Z,974.89
2017-04-18T10:17:47.615Z,974.9
2017-04-18T10:18:56.689Z,974.89
2017-04-18T10:20:06.093Z,974.92
2017-04-18T10:21:14.845Z,974.86
2017-04-18T10:22:23.859Z,975.12
2017-04-18T10:23:32.944Z,974.91
2017-04-18T10:24:42.312Z,974.94
2017-04-18T10:25:51.007Z,974.94
2017-04-18T10:27:00.375Z,974.89
2017-04-18T10:28:09.091Z,974.89
2017-04-18T10:29:17.958Z,974.9
2017-04-18T10:30:27.214Z,974.98
2017-04-18T10:31:36.231Z,975.11
2017-04-18T10:32:45.639Z,975.11
2017-04-18T10:33:54.715Z,975.27
2017-04-18T10:35:03.486Z,975.28
2017-04-18T10:36:13.996Z,975.31
2017-04-18T10:37:22.854Z,975.32
2017-04-18T10:38:31.849Z,975.35
2017-04-18T10:39:41.167Z,975.43
2017-04-18T10:40:50.070Z,975.4
2017-04-18T10:41:58.785Z,975.45
2017-04-18T10:43:07.861Z,975.44
2017-04-18T10:44:16.602Z,975.44
2017-04-18T10:45:25.611Z,975.51
2017-04-18T10:46:34.675Z,975.52
2017-04-18T10:47:43.738Z,975.55
2017-04-18T10:48:52.504Z,975.53
2017-04-18T10:50:01.578Z,975.52
2017-04-18T10:51:10.280Z,975.5
2017-04-18T10:52:19.043Z,975.48
2017-04-18T10:53:27.811Z,975.48
2017-04-18T10:54:37.188Z,975.49
2017-04-18T10:55:46.212Z,975.49
2017-04-18T10:56:54.973Z,975.51
2017-04-18T10:58:04.042Z,975.55
2017-04-18T10:59:12.815Z,975.54
2017-04-18T11:00:22.188Z,975.51
2017-04-18T11:01:31.268Z,975.55
2017-04-18T11:02:39.986Z,975.52
2017-04-18T11:03:49.366Z,975.52
2017-04-18T11:04:58.742Z,975.55
2017-04-18T11:06:07.497Z,975.56
2017-04-18T11:07:16.229Z,975.62
2017-04-18T11:08:25.909Z,975.6
2017-04-18T11:09:35.582Z,975.6
2017-04-18T11:10:44.655Z,975.69
2017-04-18T11:11:53.432Z,975.69
2017-04-18T11:13:02.804Z,975.67
2017-04-18T11:14:11.563Z,975.74
2017-04-18T11:15:20.568Z,975.68
2017-04-18T11:16:29.277Z,975.75
2017-04-18T11:17:38.037Z,975.75
2017-04-18T11:18:46.798Z,975.8
2017-04-18T11:19:55.873Z,975.76
2017-04-18T11:21:04.631Z,975.74
2017-04-18T11:22:13.633Z,975.76
2017-04-18T11:23:22.351Z,975.78
2017-04-18T11:24:32.234Z,975.8
2017-04-18T11:25:41.399Z,975.78
2017-04-18T11:26:50.108Z,975.83
2017-04-18T11:27:58.885Z,975.79
2017-04-18T11:29:08.252Z,975.79
2017-04-18T11:30:17.026Z,975.78
2017-04-18T11:31:25.784Z,975.81
2017-04-18T11:32:34.853Z,975.88
2017-04-18T11:33:44.267Z,975.88
2017-04-18T11:34:53.315Z,975.91
2017-04-18T11:36:02.349Z,975.92
2017-04-18T11:37:11.412Z,975.95
2017-04-18T11:38:20.181Z,975.89
2017-04-18T11:39:29.654Z,975.94
2017-04-18T11:40:38.840Z,975.94
2017-04-18T11:41:48.241Z,975.91
2017-04-18T11:42:57.005Z,975.93
2017-04-18T11:44:05.940Z,975.83
2017-04-18T11:45:15.000Z,975.82
2017-04-18T11:46:24.414Z,975.84
2017-04-18T11:47:33.188Z,975.79
2017-04-18T11:48:42.263Z,975.79
2017-04-18T11:49:51.108Z,975.8
2017-04-18T11:51:00.680Z,975.81
2017-04-18T11:52:09.693Z,975.87
2017-04-18T11:53:18.761Z,975.85
2017-04-18T11:54:27.525Z,975.91
2017-04-18T11:55:36.894Z,975.9
2017-04-18T11:56:45.657Z,975.95
2017-04-18T11:57:54.436Z,975.9
2017-04-18T11:59:03.204Z,975.93
2017-04-18T12:00:11.965Z,975.92
2017-04-18T12:01:20.738Z,975.91
2017-04-18T12:02:30.112Z,975.91
2017-04-18T12:03:38.880Z,975.87
2017-04-18T12:04:47.948Z,975.84
2017-04-18T12:05:57.017Z,975.89
2017-04-18T12:07:05.774Z,975.82
2017-04-18T12:08:14.843Z,975.87
2017-04-18T12:09:23.599Z,975.78
2017-04-18T12:10:32.356Z,975.8
2017-04-18T12:11:41.122Z,975.78
2017-04-18T12:12:50.078Z,975.8
2017-04-18T12:13:59.125Z,975.81
2017-04-18T12:15:08.516Z,975.75
2017-04-18T12:16:17.580Z,975.82
2017-04-18T12:17:27.150Z,975.78
2017-04-18T12:18:36.200Z,975.79
2017-04-18T12:19:44.955Z,975.81
2017-04-18T12:20:53.707Z,975.77
2017-04-18T12:22:02.773Z,975.78
2017-04-18T12:23:11.496Z,975.78
2017-04-18T12:24:20.812Z,975.79
2017-04-18T12:25:30.184Z,975.74
2017-04-18T12:26:38.943Z,975.75
2017-04-18T12:27:47.715Z,975.85
2017-04-18T12:28:56.800Z,975.85
2017-04-18T12:30:06.170Z,975.89
2017-04-18T12:31:14.881Z,975.94
2017-04-18T12:32:23.957Z,975.86
2017-04-18T12:33:32.718Z,975.91
2017-04-18T12:34:41.474Z,975.85
2017-04-18T12:35:50.225Z,975.93
2017-04-18T12:36:58.982Z,975.87
2017-04-18T12:38:08.040Z,975.93
2017-04-18T12:39:16.806Z,975.92
2017-04-18T12:40:26.024Z,975.93
2017-04-18T12:41:34.814Z,975.96
2017-04-18T12:42:44.300Z,975.94
2017-04-18T12:43:53.456Z,975.91
2017-04-18T12:45:02.215Z,975.9
2017-04-18T12:46:11.330Z,975.91
2017-04-18T12:47:20.045Z,975.85
2017-04-18T12:48:30.075Z,975.91
2017-04-18T12:49:38.877Z,975.94
2017-04-18T12:50:48.250Z,975.85
2017-04-18T12:51:57.025Z,975.87
2017-04-18T12:53:05.790Z,975.84
2017-04-18T12:54:14.788Z,975.88
2017-04-18T12:55:23.743Z,975.85
2017-04-18T12:56:32.497Z,975.91
2017-04-18T12:57:41.504Z,975.96
2017-04-18T12:58:50.269Z,976.01
2017-04-18T12:59:59.029Z,976.03
2017-04-18T13:01:08.294Z,976.07
2017-04-18T13:02:17.351Z,976.03
2017-04-18T13:03:26.057Z,976.07
2017-04-18T13:04:34.806Z,976.08
2017-04-18T13:05:43.498Z,976.14
2017-04-18T13:06:52.214Z,976.1
2017-04-18T13:08:00.974Z,976.12
2017-04-18T13:09:09.742Z,976.1
2017-04-18T13:10:18.502Z,976.13
2017-04-18T13:11:27.736Z,976.12
2017-04-18T13:12:36.806Z,976.13
2017-04-18T13:13:45.920Z,976.1
2017-04-18T13:14:54.983Z,976.08
2017-04-18T13:16:03.989Z,976.16
2017-04-18T13:17:13.061Z,976.09
2017-04-18T13:18:21.832Z,976.17
2017-04-18T13:19:30.581Z,976.18
2017-04-18T13:20:39.281Z,976.2
2017-04-18T13:21:47.991Z,976.18
2017-04-18T13:22:57.068Z,976.25
2017-04-18T13:24:05.824Z,976.26
2017-04-18T13:25:14.634Z,976.23
2017-04-18T13:26:23.808Z,976.2
2017-04-18T13:27:32.784Z,976.25
2017-04-18T13:28:41.562Z,976.18
2017-04-18T13:29:50.427Z,976.21
2017-04-18T13:30:59.361Z,976.16
2017-04-18T13:32:08.458Z,976.16
2017-04-18T13:33:17.222Z,976.22
2017-04-18T13:34:25.978Z,976.17
2017-04-18T13:35:34.740Z,976.15
2017-04-18T13:36:43.494Z,976.14
2017-04-18T13:37:52.411Z,976.13
2017-04-18T13:39:01.382Z,976.14
2017-04-18T13:40:10.494Z,976.16
2017-04-18T13:41:19.255Z,976.19
2017-04-18T13:42:28.010Z,976.19
2017-04-18T13:43:36.790Z,976.19
2017-04-18T13:44:45.912Z,976.18
2017-04-18T13:45:54.676Z,976.18
2017-04-18T13:47:04.062Z,976.25
2017-04-18T13:48:13.435Z,976.2
2017-04-18T13:49:23.011Z,976.21
2017-04-18T13:50:32.082Z,976.24
2017-04-18T13:51:41.145Z,976.23
2017-04-18T13:52:50.572Z,976.23
2017-04-18T13:53:59.322Z,976.24
2017-04-18T13:55:08.263Z,976.17
2017-04-18T13:56:17.052Z,976.24
2017-04-18T13:57:25.827Z,976.19
2017-04-18T13:58:34.578Z,976.13
2017-04-18T13:59:43.536Z,976.14
2017-04-18T14:00:52.296Z,976.16
2017-04-18T14:02:01.061Z,976.17
2017-04-18T14:03:09.835Z,976.15
2017-04-18T14:04:18.600Z,976.13
2017-04-18T14:05:27.601Z,976.14
2017-04-18T14:06:36.367Z,976.16
2017-04-18T14:07:45.144Z,976.15
2017-04-18T14:08:53.900Z,976.09
2017-04-18T14:10:02.977Z,976.09
2017-04-18T14:11:12.050Z,976.07
2017-04-18T14:12:21.210Z,976.14
2017-04-18T14:13:29.975Z,976.1
2017-04-18T14:14:39.362Z,976.1
2017-04-18T14:15:48.130Z,976.19
2017-04-18T14:16:56.868Z,976.16
2017-04-18T14:18:05.967Z,976.17
2017-04-18T14:19:14.747Z,976.2
2017-04-18T14:20:23.517Z,976.21
2017-04-18T14:21:32.507Z,976.21
2017-04-18T14:22:41.270Z,976.23
2017-04-18T14:23:50.340Z,976.22
2017-04-18T14:24:59.110Z,976.19